Hovedside
METAR-TAF:

METAR-TAF

Lufthavner :

Sultan Azlan Shah lufthavn

Ipoh, Malaysia

breddegrad: 04-34-09N, lengdegrad: 101-05-35E, høyde over havet: 40 m

Gjeldene værobservasjon

Denne rapporten ble laget for 27 minutter siden, klokken 18:00 UTC
Vind 4 kt fra Nord-nordøst
Temperatur 26°C
Luftfuktighet 89%
Trykk 1008 hPa
Sikt: 9000 m
Få skyer i en høyde av 2600 ft

METAR: WMKI 151800Z 02004KT 9000 FEW026 26/24 Q1008

Tid: 02:27 (18:27 UTC)

Varsel

Denne rapporten ble laget for 1 time og 27 minutter siden, klokken 17:00 UTC
Varsel gyldig fra 15. klokken 18 UTC til 16. klokken 18 UTC
Vind 3 kt fra skiftende retning
Sikt: 8000 m
Få skyer i en høyde av 2500 ft

TAF: WMKI 151700Z 1518/1618 VRB03KT 8000 FEW025

Værobservasjoner og værvarsel for over 4000 flyplasser (METAR- og TAF-rapporter).

Tilgjengelige stasjoner er representert av de røde og gule prikkene på kartet.

Hold musepekeren over prikken for å se navnet på stasjonen.

Klikk så for å se værobservasjoner og -varsler.

For å forandre kartet kan du klikke på den grønne knappen med svart kryss for å zoome inn, på den grønne knappen med strek for å zoome ut, eller på de grønne pilene for å se tilstøtende kart.


METAR-TAF: